sensor_id;sensor_type;location;lat;lon;timestamp;pressure;altitude;pressure_sealevel;temperature;humidity
14882;BME280;7533;51.278;12.588;2023-03-26T00:02:05;99087.84;;;23.70;56.25
14882;BME280;7533;51.278;12.588;2023-03-26T00:07:07;99089.28;;;23.65;56.38
14882;BME280;7533;51.278;12.588;2023-03-26T00:12:12;99097.13;;;23.58;56.51
14882;BME280;7533;51.278;12.588;2023-03-26T00:17:15;99106.94;;;23.49;56.76
14882;BME280;7533;51.278;12.588;2023-03-26T00:22:18;99108.69;;;23.41;57.06
14882;BME280;7533;51.278;12.588;2023-03-26T00:27:22;99100.31;;;23.34;57.05
14882;BME280;7533;51.278;12.588;2023-03-26T00:32:26;99101.91;;;23.27;57.21
14882;BME280;7533;51.278;12.588;2023-03-26T00:37:30;99104.34;;;23.20;57.48
14882;BME280;7533;51.278;12.588;2023-03-26T00:42:35;99104.38;;;23.11;57.73
14882;BME280;7533;51.278;12.588;2023-03-26T00:47:38;99100.41;;;23.05;57.96
14882;BME280;7533;51.278;12.588;2023-03-26T00:52:42;99094.72;;;22.99;58.50
14882;BME280;7533;51.278;12.588;2023-03-26T00:57:46;99092.78;;;22.91;58.68
14882;BME280;7533;51.278;12.588;2023-03-26T01:02:49;99085.34;;;22.83;58.88
14882;BME280;7533;51.278;12.588;2023-03-26T01:07:52;99090.47;;;22.77;59.02
14882;BME280;7533;51.278;12.588;2023-03-26T01:12:57;99084.66;;;22.71;59.18
14882;BME280;7533;51.278;12.588;2023-03-26T01:17:59;99094.91;;;22.68;59.31
14882;BME280;7533;51.278;12.588;2023-03-26T01:23:06;99094.59;;;22.61;59.61
14882;BME280;7533;51.278;12.588;2023-03-26T01:28:10;99091.34;;;22.58;59.82
14882;BME280;7533;51.278;12.588;2023-03-26T01:33:19;99087.22;;;22.54;59.97
14882;BME280;7533;51.278;12.588;2023-03-26T01:38:36;99086.09;;;22.47;60.33
14882;BME280;7533;51.278;12.588;2023-03-26T01:43:52;99085.66;;;22.41;60.49
14882;BME280;7533;51.278;12.588;2023-03-26T01:48:56;99096.88;;;22.37;60.53
14882;BME280;7533;51.278;12.588;2023-03-26T01:54:00;99097.16;;;22.34;60.67
14882;BME280;7533;51.278;12.588;2023-03-26T01:59:19;99087.81;;;22.28;60.87
14882;BME280;7533;51.278;12.588;2023-03-26T02:04:32;99085.53;;;22.24;61.03
14882;BME280;7533;51.278;12.588;2023-03-26T02:09:42;99086.94;;;22.18;61.25
14882;BME280;7533;51.278;12.588;2023-03-26T02:14:48;99076.56;;;22.13;61.45
14882;BME280;7533;51.278;12.588;2023-03-26T02:19:51;99079.66;;;22.09;61.43
14882;BME280;7533;51.278;12.588;2023-03-26T02:24:54;99087.16;;;22.05;61.63
14882;BME280;7533;51.278;12.588;2023-03-26T02:29:59;99082.31;;;21.99;61.82
14882;BME280;7533;51.278;12.588;2023-03-26T02:35:03;99086.31;;;21.95;61.95
14882;BME280;7533;51.278;12.588;2023-03-26T02:40:08;99080.19;;;21.93;62.18
14882;BME280;7533;51.278;12.588;2023-03-26T02:45:16;99087.97;;;21.86;62.09
14882;BME280;7533;51.278;12.588;2023-03-26T02:50:19;99079.44;;;21.81;62.38
14882;BME280;7533;51.278;12.588;2023-03-26T02:55:42;99065.53;;;21.76;62.37
14882;BME280;7533;51.278;12.588;2023-03-26T03:00:46;99078.16;;;21.76;62.43
14882;BME280;7533;51.278;12.588;2023-03-26T03:06:15;99068.63;;;21.72;62.63
14882;BME280;7533;51.278;12.588;2023-03-26T03:11:24;99066.38;;;21.67;62.73
14882;BME280;7533;51.278;12.588;2023-03-26T03:16:29;99053.03;;;21.65;62.97
14882;BME280;7533;51.278;12.588;2023-03-26T03:21:42;99064.25;;;21.61;63.18
14882;BME280;7533;51.278;12.588;2023-03-26T03:26:44;99053.72;;;21.58;63.23
14882;BME280;7533;51.278;12.588;2023-03-26T03:32:09;99061.94;;;21.56;63.33
14882;BME280;7533;51.278;12.588;2023-03-26T03:37:19;99065.91;;;21.52;63.64
14882;BME280;7533;51.278;12.588;2023-03-26T03:42:27;99058.81;;;21.51;63.79
14882;BME280;7533;51.278;12.588;2023-03-26T03:47:35;99050.88;;;21.50;63.82
14882;BME280;7533;51.278;12.588;2023-03-26T03:52:38;99041.38;;;21.46;64.14
14882;BME280;7533;51.278;12.588;2023-03-26T03:57:41;99061.22;;;21.45;64.13
14882;BME280;7533;51.278;12.588;2023-03-26T04:02:50;99047.16;;;21.41;64.05
14882;BME280;7533;51.278;12.588;2023-03-26T04:07:56;99049.25;;;21.37;63.98
14882;BME280;7533;51.278;12.588;2023-03-26T04:13:00;99050.41;;;21.35;63.93
14882;BME280;7533;51.278;12.588;2023-03-26T04:18:34;99045.84;;;21.35;64.00
14882;BME280;7533;51.278;12.588;2023-03-26T04:23:45;99059.47;;;21.34;63.95
14882;BME280;7533;51.278;12.588;2023-03-26T04:29:07;99055.06;;;21.33;64.31
14882;BME280;7533;51.278;12.588;2023-03-26T04:34:19;99049.09;;;21.29;64.59
14882;BME280;7533;51.278;12.588;2023-03-26T04:39:33;99048.34;;;21.27;64.66
14882;BME280;7533;51.278;12.588;2023-03-26T04:44:59;99054.84;;;21.25;64.83
14882;BME280;7533;51.278;12.588;2023-03-26T04:50:08;99047.75;;;21.24;64.97
14882;BME280;7533;51.278;12.588;2023-03-26T04:55:20;99043.47;;;21.21;64.76
14882;BME280;7533;51.278;12.588;2023-03-26T05:00:34;99044.63;;;21.19;65.06
14882;BME280;7533;51.278;12.588;2023-03-26T05:05:39;99047.56;;;21.16;64.93
14882;BME280;7533;51.278;12.588;2023-03-26T05:10:43;99051.38;;;21.13;65.20
14882;BME280;7533;51.278;12.588;2023-03-26T05:15:56;99054.22;;;21.11;65.12
14882;BME280;7533;51.278;12.588;2023-03-26T05:21:26;99052.63;;;21.09;65.05
14882;BME280;7533;51.278;12.588;2023-03-26T05:26:30;99052.78;;;21.07;64.98
14882;BME280;7533;51.278;12.588;2023-03-26T05:31:32;99057.31;;;21.07;65.16
14882;BME280;7533;51.278;12.588;2023-03-26T05:36:38;99061.00;;;21.06;64.98
14882;BME280;7533;51.278;12.588;2023-03-26T05:42:00;99063.94;;;21.03;65.15
14882;BME280;7533;51.278;12.588;2023-03-26T05:47:15;99070.31;;;21.02;65.15
14882;BME280;7533;51.278;12.588;2023-03-26T05:52:19;99057.84;;;21.01;65.14
14882;BME280;7533;51.278;12.588;2023-03-26T05:57:49;99061.53;;;21.00;65.27
14882;BME280;7533;51.278;12.588;2023-03-26T06:03:11;99058.84;;;21.00;65.27
14882;BME280;7533;51.278;12.588;2023-03-26T06:08:41;99049.03;;;20.99;65.43
14882;BME280;7533;51.278;12.588;2023-03-26T06:13:44;99047.34;;;20.98;65.24
14882;BME280;7533;51.278;12.588;2023-03-26T06:18:48;99044.53;;;20.99;65.22
14882;BME280;7533;51.278;12.588;2023-03-26T06:24:25;99044.41;;;21.01;65.53
14882;BME280;7533;51.278;12.588;2023-03-26T06:29:40;99039.16;;;20.99;65.73
14882;BME280;7533;51.278;12.588;2023-03-26T06:35:02;99033.03;;;20.97;65.60
14882;BME280;7533;51.278;12.588;2023-03-26T06:40:08;99039.00;;;21.01;65.74
14882;BME280;7533;51.278;12.588;2023-03-26T06:45:31;99038.28;;;20.99;65.75
14882;BME280;7533;51.278;12.588;2023-03-26T06:50:53;99039.16;;;20.99;65.67
14882;BME280;7533;51.278;12.588;2023-03-26T06:56:26;99030.22;;;20.99;65.79
14882;BME280;7533;51.278;12.588;2023-03-26T07:01:36;99028.25;;;21.01;65.68
14882;BME280;7533;51.278;12.588;2023-03-26T07:07:14;99027.84;;;21.05;65.31
14882;BME280;7533;51.278;12.588;2023-03-26T07:12:40;99023.91;;;21.09;64.44
14882;BME280;7533;51.278;12.588;2023-03-26T07:18:01;99036.47;;;20.25;56.25
14882;BME280;7533;51.278;12.588;2023-03-26T07:23:09;99021.38;;;19.92;55.06
14882;BME280;7533;51.278;12.588;2023-03-26T07:28:37;99007.91;;;20.77;56.69
14882;BME280;7533;51.278;12.588;2023-03-26T07:34:25;98993.00;;;21.04;57.57
14882;BME280;7533;51.278;12.588;2023-03-26T07:39:51;98991.50;;;21.21;58.36
14882;BME280;7533;51.278;12.588;2023-03-26T07:45:23;98993.44;;;21.30;58.96
14882;BME280;7533;51.278;12.588;2023-03-26T07:50:42;98981.97;;;21.37;59.32
14882;BME280;7533;51.278;12.588;2023-03-26T07:56:00;98984.00;;;21.45;59.58
14882;BME280;7533;51.278;12.588;2023-03-26T08:01:23;98970.25;;;21.48;59.92
14882;BME280;7533;51.278;12.588;2023-03-26T08:06:33;98966.28;;;21.52;60.08
14882;BME280;7533;51.278;12.588;2023-03-26T08:12:11;98971.25;;;21.57;60.24
14882;BME280;7533;51.278;12.588;2023-03-26T08:17:25;98974.50;;;21.60;60.59
14882;BME280;7533;51.278;12.588;2023-03-26T08:22:33;98961.78;;;21.62;60.52
14882;BME280;7533;51.278;12.588;2023-03-26T08:27:45;98954.25;;;21.66;60.63
14882;BME280;7533;51.278;12.588;2023-03-26T08:32:54;98955.69;;;21.70;60.74
14882;BME280;7533;51.278;12.588;2023-03-26T08:37:57;98962.91;;;21.70;60.66
14882;BME280;7533;51.278;12.588;2023-03-26T08:43:31;98960.06;;;21.71;60.66
14882;BME280;7533;51.278;12.588;2023-03-26T08:49:14;98947.34;;;21.73;60.56
14882;BME280;7533;51.278;12.588;2023-03-26T09:00:37;98938.84;;;21.78;60.35
14882;BME280;7533;51.278;12.588;2023-03-26T09:06:01;98927.78;;;21.81;60.01
14882;BME280;7533;51.278;12.588;2023-03-26T09:11:29;98920.28;;;21.84;59.96
14882;BME280;7533;51.278;12.588;2023-03-26T09:17:13;98920.13;;;21.86;59.87
14882;BME280;7533;51.278;12.588;2023-03-26T09:28:23;98918.00;;;21.89;59.93
14882;BME280;7533;51.278;12.588;2023-03-26T09:33:55;98915.16;;;21.91;59.69
14882;BME280;7533;51.278;12.588;2023-03-26T09:39:08;98914.31;;;21.90;59.47
14882;BME280;7533;51.278;12.588;2023-03-26T09:49:56;98916.28;;;21.88;60.06
14882;BME280;7533;51.278;12.588;2023-03-26T09:55:32;98916.44;;;21.87;60.13
14882;BME280;7533;51.278;12.588;2023-03-26T10:00:43;98910.19;;;21.86;60.35
14882;BME280;7533;51.278;12.588;2023-03-26T10:06:12;98899.16;;;21.89;60.43
14882;BME280;7533;51.278;12.588;2023-03-26T10:11:28;98890.63;;;21.94;60.16
14882;BME280;7533;51.278;12.588;2023-03-26T10:16:43;98871.34;;;21.99;59.63
14882;BME280;7533;51.278;12.588;2023-03-26T10:22:01;98873.03;;;22.00;59.62
14882;BME280;7533;51.278;12.588;2023-03-26T10:27:20;98859.13;;;22.04;59.61
14882;BME280;7533;51.278;12.588;2023-03-26T10:32:34;98849.94;;;22.07;59.83
14882;BME280;7533;51.278;12.588;2023-03-26T10:37:49;98841.69;;;22.08;59.90
14882;BME280;7533;51.278;12.588;2023-03-26T10:43:13;98844.13;;;22.11;60.00
14882;BME280;7533;51.278;12.588;2023-03-26T10:48:40;98824.41;;;22.11;60.21
14882;BME280;7533;51.278;12.588;2023-03-26T10:53:52;98826.53;;;22.17;61.16
14882;BME280;7533;51.278;12.588;2023-03-26T10:58:55;98823.09;;;22.25;61.71
14882;BME280;7533;51.278;12.588;2023-03-26T11:04:07;98823.09;;;22.25;61.93
14882;BME280;7533;51.278;12.588;2023-03-26T11:09:24;98822.09;;;22.26;58.50
14882;BME280;7533;51.278;12.588;2023-03-26T11:14:38;98834.19;;;17.14;54.71
14882;BME280;7533;51.278;12.588;2023-03-26T11:19:48;98837.06;;;16.25;55.14
14882;BME280;7533;51.278;12.588;2023-03-26T11:25:25;98837.25;;;16.22;56.45
14882;BME280;7533;51.278;12.588;2023-03-26T11:30:36;98837.75;;;19.19;55.53
14882;BME280;7533;51.278;12.588;2023-03-26T11:35:44;98819.56;;;19.97;54.80
14882;BME280;7533;51.278;12.588;2023-03-26T11:40:52;98813.00;;;20.41;54.76
14882;BME280;7533;51.278;12.588;2023-03-26T11:46:17;98811.31;;;20.71;55.25
14882;BME280;7533;51.278;12.588;2023-03-26T11:51:24;98812.19;;;20.91;55.70
14882;BME280;7533;51.278;12.588;2023-03-26T11:56:31;98804.59;;;21.05;55.72
14882;BME280;7533;51.278;12.588;2023-03-26T12:01:42;98803.63;;;21.16;56.14
14882;BME280;7533;51.278;12.588;2023-03-26T12:06:53;98809.81;;;21.26;56.16
14882;BME280;7533;51.278;12.588;2023-03-26T12:12:02;98793.72;;;21.36;56.43
14882;BME280;7533;51.278;12.588;2023-03-26T12:17:11;98783.97;;;21.45;56.52
14882;BME280;7533;51.278;12.588;2023-03-26T12:22:27;98772.91;;;21.48;56.58
14882;BME280;7533;51.278;12.588;2023-03-26T12:27:32;98773.63;;;21.50;56.73
14882;BME280;7533;51.278;12.588;2023-03-26T12:32:40;98772.19;;;21.55;56.92
14882;BME280;7533;51.278;12.588;2023-03-26T12:37:47;98772.06;;;21.57;56.81
14882;BME280;7533;51.278;12.588;2023-03-26T12:42:53;98766.34;;;21.60;56.79
14882;BME280;7533;51.278;12.588;2023-03-26T12:48:17;98763.81;;;21.58;56.66
14882;BME280;7533;51.278;12.588;2023-03-26T12:59:16;98764.50;;;21.60;57.00
14882;BME280;7533;51.278;12.588;2023-03-26T13:04:46;98767.09;;;21.62;57.05
14882;BME280;7533;51.278;12.588;2023-03-26T13:10:32;98763.41;;;21.63;57.12
14882;BME280;7533;51.278;12.588;2023-03-26T13:15:42;98772.31;;;21.63;57.12
14882;BME280;7533;51.278;12.588;2023-03-26T13:20:54;98764.09;;;21.65;57.16
14882;BME280;7533;51.278;12.588;2023-03-26T13:26:11;98762.13;;;21.67;56.96
14882;BME280;7533;51.278;12.588;2023-03-26T13:31:23;98759.56;;;21.65;56.94
14882;BME280;7533;51.278;12.588;2023-03-26T13:36:40;98754.31;;;21.64;56.89
14882;BME280;7533;51.278;12.588;2023-03-26T13:41:58;98761.53;;;21.63;56.73
14882;BME280;7533;51.278;12.588;2023-03-26T13:47:13;98752.78;;;21.61;56.36
14882;BME280;7533;51.278;12.588;2023-03-26T13:52:21;98760.00;;;21.61;56.18
14882;BME280;7533;51.278;12.588;2023-03-26T13:57:28;98757.16;;;21.62;56.22
14882;BME280;7533;51.278;12.588;2023-03-26T14:02:38;98753.47;;;21.63;56.26
14882;BME280;7533;51.278;12.588;2023-03-26T14:07:45;98753.47;;;21.63;56.39
14882;BME280;7533;51.278;12.588;2023-03-26T14:12:55;98745.53;;;21.62;56.28
14882;BME280;7533;51.278;12.588;2023-03-26T14:18:06;98752.63;;;21.63;56.32
14882;BME280;7533;51.278;12.588;2023-03-26T14:23:24;98754.47;;;21.62;56.32
14882;BME280;7533;51.278;12.588;2023-03-26T14:28:57;98752.63;;;21.63;56.36
14882;BME280;7533;51.278;12.588;2023-03-26T14:34:23;98749.09;;;21.62;56.43
14882;BME280;7533;51.278;12.588;2023-03-26T14:39:39;98740.16;;;21.62;56.53
14882;BME280;7533;51.278;12.588;2023-03-26T14:45:22;98742.69;;;21.63;56.72
14882;BME280;7533;51.278;12.588;2023-03-26T14:50:54;98734.78;;;21.62;56.74
14882;BME280;7533;51.278;12.588;2023-03-26T15:01:48;98724.84;;;21.62;57.10
14882;BME280;7533;51.278;12.588;2023-03-26T15:07:55;98738.31;;;21.62;57.06
14882;BME280;7533;51.278;12.588;2023-03-26T15:19:04;98731.94;;;21.63;57.40
14882;BME280;7533;51.278;12.588;2023-03-26T15:24:31;98726.41;;;21.65;57.37
14882;BME280;7533;51.278;12.588;2023-03-26T15:35:29;98732.94;;;21.62;57.45
14882;BME280;7533;51.278;12.588;2023-03-26T15:40:48;98732.22;;;21.60;57.28
14882;BME280;7533;51.278;12.588;2023-03-26T15:46:24;98733.78;;;21.63;57.27
14882;BME280;7533;51.278;12.588;2023-03-26T15:51:37;98733.63;;;21.64;57.42
14882;BME280;7533;51.278;12.588;2023-03-26T15:56:57;98728.25;;;21.64;57.47
14882;BME280;7533;51.278;12.588;2023-03-26T16:02:18;98723.00;;;21.63;57.50
14882;BME280;7533;51.278;12.588;2023-03-26T16:07:32;98722.00;;;21.64;57.34
14882;BME280;7533;51.278;12.588;2023-03-26T16:12:53;98722.16;;;21.62;57.40
14882;BME280;7533;51.278;12.588;2023-03-26T16:18:16;98720.47;;;21.61;57.56
14882;BME280;7533;51.278;12.588;2023-03-26T16:23:25;98715.38;;;21.58;57.65
14882;BME280;7533;51.278;12.588;2023-03-26T16:28:34;98724.28;;;21.59;57.70
14882;BME280;7533;51.278;12.588;2023-03-26T16:33:43;98718.38;;;21.55;57.83
14882;BME280;7533;51.278;12.588;2023-03-26T16:38:54;98719.63;;;21.51;57.94
14882;BME280;7533;51.278;12.588;2023-03-26T16:44:13;98710.84;;;21.49;57.98
14882;BME280;7533;51.278;12.588;2023-03-26T16:49:28;98711.00;;;21.48;58.18
14882;BME280;7533;51.278;12.588;2023-03-26T16:54:46;98706.75;;;21.45;58.24
14882;BME280;7533;51.278;12.588;2023-03-26T17:00:03;98702.38;;;21.44;58.49
14882;BME280;7533;51.278;12.588;2023-03-26T17:05:18;98708.88;;;21.42;58.52
14882;BME280;7533;51.278;12.588;2023-03-26T17:10:29;98708.88;;;21.42;58.67
14882;BME280;7533;51.278;12.588;2023-03-26T17:15:42;98706.19;;;21.42;59.14
14882;BME280;7533;51.278;12.588;2023-03-26T17:20:56;98709.88;;;21.41;59.29
14882;BME280;7533;51.278;12.588;2023-03-26T17:26:09;98724.44;;;21.38;59.50
14882;BME280;7533;51.278;12.588;2023-03-26T17:31:34;98722.63;;;21.38;59.56
14882;BME280;7533;51.278;12.588;2023-03-26T17:36:41;98718.38;;;21.36;59.84
14882;BME280;7533;51.278;12.588;2023-03-26T17:41:55;98738.91;;;21.37;59.80
14882;BME280;7533;51.278;12.588;2023-03-26T17:47:15;98733.69;;;21.35;59.87
14882;BME280;7533;51.278;12.588;2023-03-26T17:52:24;98738.22;;;21.35;60.08
14882;BME280;7533;51.278;12.588;2023-03-26T17:57:35;98733.81;;;21.34;60.06
14882;BME280;7533;51.278;12.588;2023-03-26T18:02:46;98734.81;;;21.33;60.24
14882;BME280;7533;51.278;12.588;2023-03-26T18:08:14;98743.16;;;21.39;60.14
14882;BME280;7533;51.278;12.588;2023-03-26T18:13:39;98743.03;;;21.41;60.33
14882;BME280;7533;51.278;12.588;2023-03-26T18:18:51;98742.31;;;21.39;60.38
14882;BME280;7533;51.278;12.588;2023-03-26T18:23:58;98735.78;;;21.42;60.29
14882;BME280;7533;51.278;12.588;2023-03-26T18:29:18;98745.56;;;21.43;60.77
14882;BME280;7533;51.278;12.588;2023-03-26T18:34:24;98743.13;;;21.49;61.27
14882;BME280;7533;51.278;12.588;2023-03-26T18:39:27;98740.59;;;21.57;61.78
14882;BME280;7533;51.278;12.588;2023-03-26T18:44:31;98738.00;;;21.65;61.58
14882;BME280;7533;51.278;12.588;2023-03-26T18:49:37;98741.00;;;21.72;61.40
14882;BME280;7533;51.278;12.588;2023-03-26T18:54:46;98732.19;;;21.80;61.18
14882;BME280;7533;51.278;12.588;2023-03-26T18:59:51;98726.19;;;21.86;61.13
14882;BME280;7533;51.278;12.588;2023-03-26T19:04:56;98719.22;;;21.93;61.00
14882;BME280;7533;51.278;12.588;2023-03-26T19:09:59;98711.41;;;22.00;60.84
14882;BME280;7533;51.278;12.588;2023-03-26T19:15:04;98713.53;;;22.06;60.66
14882;BME280;7533;51.278;12.588;2023-03-26T19:20:15;98716.50;;;22.12;60.31
14882;BME280;7533;51.278;12.588;2023-03-26T19:25:21;98719.59;;;22.17;60.21
14882;BME280;7533;51.278;12.588;2023-03-26T19:30:29;98713.63;;;22.24;60.01
14882;BME280;7533;51.278;12.588;2023-03-26T19:35:37;98715.00;;;22.28;59.83
14882;BME280;7533;51.278;12.588;2023-03-26T19:40:41;98715.56;;;22.31;59.78
14882;BME280;7533;51.278;12.588;2023-03-26T19:45:48;98706.00;;;22.37;59.58
14882;BME280;7533;51.278;12.588;2023-03-26T19:51:04;98702.03;;;22.41;59.37
14882;BME280;7533;51.278;12.588;2023-03-26T19:56:13;98700.34;;;22.40;59.42
14882;BME280;7533;51.278;12.588;2023-03-26T20:01:21;98694.88;;;22.50;58.87
14882;BME280;7533;51.278;12.588;2023-03-26T20:06:27;98693.41;;;22.55;58.77
14882;BME280;7533;51.278;12.588;2023-03-26T20:11:44;98695.81;;;22.58;58.71
14882;BME280;7533;51.278;12.588;2023-03-26T20:16:48;98694.66;;;22.61;58.42
14882;BME280;7533;51.278;12.588;2023-03-26T20:21:53;98683.56;;;22.64;58.45
14882;BME280;7533;51.278;12.588;2023-03-26T20:26:58;98693.13;;;22.58;58.85
14882;BME280;7533;51.278;12.588;2023-03-26T20:32:01;98693.91;;;22.68;58.57
14882;BME280;7533;51.278;12.588;2023-03-26T20:37:08;98692.56;;;22.73;58.63
14882;BME280;7533;51.278;12.588;2023-03-26T20:42:11;98689.44;;;22.77;58.63
14882;BME280;7533;51.278;12.588;2023-03-26T20:47:16;98693.44;;;22.73;58.88
14882;BME280;7533;51.278;12.588;2023-03-26T20:52:20;98686.97;;;22.84;58.82
14882;BME280;7533;51.278;12.588;2023-03-26T20:57:26;98689.66;;;22.84;58.67
14882;BME280;7533;51.278;12.588;2023-03-26T21:02:28;98694.19;;;22.83;58.73
14882;BME280;7533;51.278;12.588;2023-03-26T21:07:33;98685.41;;;22.91;58.60
14882;BME280;7533;51.278;12.588;2023-03-26T21:12:41;98691.47;;;22.93;58.61
14882;BME280;7533;51.278;12.588;2023-03-26T21:17:46;98694.69;;;22.79;58.77
14882;BME280;7533;51.278;12.588;2023-03-26T21:22:56;98697.75;;;22.84;58.96
14882;BME280;7533;51.278;12.588;2023-03-26T21:28:17;98695.72;;;22.95;58.67
14882;BME280;7533;51.278;12.588;2023-03-26T21:33:36;98702.09;;;22.94;58.98
14882;BME280;7533;51.278;12.588;2023-03-26T21:38:41;98713.50;;;23.06;58.88
14882;BME280;7533;51.278;12.588;2023-03-26T21:43:45;98722.53;;;23.15;58.72
14882;BME280;7533;51.278;12.588;2023-03-26T21:48:48;98716.69;;;23.19;58.65
14882;BME280;7533;51.278;12.588;2023-03-26T21:53:53;98718.06;;;23.23;58.61
14882;BME280;7533;51.278;12.588;2023-03-26T21:59:02;98728.25;;;23.30;58.52
14882;BME280;7533;51.278;12.588;2023-03-26T22:04:10;98729.00;;;23.04;59.28
14882;BME280;7533;51.278;12.588;2023-03-26T22:09:16;98732.53;;;23.22;58.90
14882;BME280;7533;51.278;12.588;2023-03-26T22:14:34;98742.03;;;23.27;59.03
14882;BME280;7533;51.278;12.588;2023-03-26T22:19:37;98746.44;;;23.28;58.95
14882;BME280;7533;51.278;12.588;2023-03-26T22:24:41;98741.03;;;23.28;58.97
14882;BME280;7533;51.278;12.588;2023-03-26T22:29:44;98744.56;;;23.28;58.97
14882;BME280;7533;51.278;12.588;2023-03-26T22:34:47;98749.28;;;23.26;58.90
14882;BME280;7533;51.278;12.588;2023-03-26T22:39:53;98760.25;;;23.25;59.01
14882;BME280;7533;51.278;12.588;2023-03-26T22:44:56;98774.88;;;23.22;59.05
14882;BME280;7533;51.278;12.588;2023-03-26T22:49:59;98775.22;;;23.19;59.12
14882;BME280;7533;51.278;12.588;2023-03-26T22:55:04;98784.59;;;23.15;59.28
14882;BME280;7533;51.278;12.588;2023-03-26T23:00:10;98798.72;;;23.09;59.37
14882;BME280;7533;51.278;12.588;2023-03-26T23:05:16;98796.78;;;23.01;59.74
14882;BME280;7533;51.278;12.588;2023-03-26T23:10:21;98813.44;;;22.96;59.78
14882;BME280;7533;51.278;12.588;2023-03-26T23:15:24;98824.97;;;22.89;60.12
14882;BME280;7533;51.278;12.588;2023-03-26T23:20:27;98847.97;;;22.83;60.30
14882;BME280;7533;51.278;12.588;2023-03-26T23:25:32;98862.88;;;22.78;60.41
14882;BME280;7533;51.278;12.588;2023-03-26T23:30:35;98874.28;;;22.71;60.69
14882;BME280;7533;51.278;12.588;2023-03-26T23:35:38;98882.81;;;22.67;60.79
14882;BME280;7533;51.278;12.588;2023-03-26T23:40:45;98888.78;;;22.61;61.01
14882;BME280;7533;51.278;12.588;2023-03-26T23:45:58;98909.69;;;22.59;61.14
14882;BME280;7533;51.278;12.588;2023-03-26T23:51:01;98920.91;;;22.54;61.25
14882;BME280;7533;51.278;12.588;2023-03-26T23:56:07;98927.56;;;22.50;61.56
